Monday, September 1, 2014, 4:58 PM EDT

KMDT, Harrisburg International Airport

Location: Middletown, PA, United States Lat: 40.2
Local Time: 4:58 PM EDT (20:58 GMT) Lon: -76.767
Time Zone: US/Eastern Elev: 308 ft

Show me the last for .
Show Decoded

2014-09-01 15:56 METAR KMDT 011956Z 14004KT 10SM SCT036 SCT075 BKN250 30/23 A2994 =
2014-09-01 14:56 METAR KMDT 011856Z 00000KT 10SM FEW046 SCT080 SCT250 30/22 A2995 =
2014-09-01 13:56 METAR KMDT 011756Z 00000KT 10SM SCT032 BKN050 BKN250 28/21 A2998 =
2014-09-01 12:56 METAR KMDT 011656Z 29005KT 10SM BKN033 OVC050 27/22 A2999 RMK AO2 SLP152
                 T02720217 =
2014-09-01 11:56 METAR KMDT 011556Z 13003KT 10SM FEW036 OVC060 28/22 A3000 RMK AO2 SLP156
                 T02780222 =
2014-09-01 10:56 METAR KMDT 011456Z 00000KT 10SM SCT055 SCT070 27/22 A3001 RMK AO2 SLP161
                 T02670222 57003 =
2014-09-01 09:56 METAR KMDT 011356Z 00000KT 10SM BKN037 OVC055 26/22 A3002 =
2014-09-01 08:56 METAR KMDT 011256Z 00000KT 8SM FEW005 SCT150 SCT250 24/22 A3002 =
2014-09-01 07:56 METAR KMDT 011156Z 00000KT 8SM SCT050 BKN150 BKN250 23/22 A3002 =
2014-09-01 07:03 METAR KMDT 011103Z 05003KT 8SM FEW004 SCT065 BKN150 BKN250 22/21 A3002 RMK AO2
                 T02220211 =
2014-09-01 06:56 METAR KMDT 011056Z 00000KT 8SM SCT065 BKN170 OVC250 22/21 A3002 RMK AO2 SLP164
                 T02220211 =
2014-09-01 05:56 METAR KMDT 010956Z 00000KT 10SM BKN065 BKN170 BKN250 23/21 A3001 RMK AO2 SLP162
                 T02280211 =
2014-09-01 04:56 METAR KMDT 010856Z 00000KT 10SM BKN065 BKN250 23/21 A3000 RMK AO2 SLP158
                 T02280211 50001 =
2014-09-01 03:56 METAR KMDT 010756Z 31004KT 10SM SCT045 BKN065 BKN130 22/21 A3001 RMK AO2 SLP159
                 T02220211 =
2014-09-01 02:56 METAR KMDT 010656Z 00000KT 10SM SCT045 BKN065 BKN190 23/21 A3000 RMK AO2 SLP158
                 T02280211 =
2014-09-01 01:56 METAR KMDT 010556Z 00000KT 10SM FEW040 BKN055 BKN160 23/21 A3000 RMK AO2 SLP157
                 60028 T02280211 10261 20222 58004 =
2014-09-01 00:56 METAR KMDT 010456Z 00000KT 10SM FEW055 FEW090 BKN200 23/21 A3001 RMK AO2 SLP162
                 T02280211 403170222 =
2014-08-31 23:56 METAR KMDT 010356Z 00000KT 10SM FEW090 SCT120 BKN160 23/21 A3001 RMK AO2 SLP160
                 T02330206 =
2014-08-31 22:56 METAR KMDT 010256Z 00000KT 10SM FEW040 SCT090 BKN120 23/21 A3001 RMK AO2 RAE05
                 SLP161 P0000 60028 T02330211 50005 =
2014-08-31 21:56 METAR KMDT 010156Z 31004KT 7SM -RA SCT025 BKN040 BKN095 OVC130 23/21 A3003 =
2014-08-31 21:44 METAR KMDT 010144Z 29013KT 1 3/4SM R13/5500VP6000FT +RA BR FEW020 BKN043 OVC060
                 24/22 A3004 RMK AO2 RAB39 PRESRR P0003 T02440222 =
2014-08-31 20:56 METAR KMDT 010056Z 00000KT 10SM SCT085 BKN100 OVC210 25/22 A3001 RMK AO2 SLP160
                 T02500222 =
2014-08-31 19:56 METAR KMDT 312356Z 00000KT 10SM FEW070 BKN100 OVC120 26/22 A3000 RMK AO2 SLP156
                 BINOVC T02610222 10317 20261 51008 =
2014-08-31 18:56 METAR KMDT 312256Z 32007KT 10SM FEW055 SCT070 BKN130 OVC250 28/21 A2999 RMK AO2
                 SLP152 CB DSNT W-SW BINOVC T02830211 =
2014-08-31 17:56 METAR KMDT 312156Z 29007KT 10SM FEW055 FEW070 SCT110 OVC190 29/21 A2999 =

Support USWX by starting your Amazon purchase here.